createdAt,value
2023-05-25T00:01:55.909Z,12.57
2023-05-25T00:04:42.040Z,12.55
2023-05-25T00:07:27.353Z,12.57
2023-05-25T00:10:13.761Z,12.52
2023-05-25T00:12:59.142Z,12.53
2023-05-25T00:15:44.519Z,12.52
2023-05-25T00:18:29.615Z,12.52
2023-05-25T00:21:15.632Z,12.54
2023-05-25T00:24:00.896Z,12.52
2023-05-25T00:26:47.401Z,12.50
2023-05-25T00:29:33.448Z,12.52
2023-05-25T00:32:19.871Z,12.55
2023-05-25T00:35:06.280Z,12.57
2023-05-25T00:37:51.627Z,12.58
2023-05-25T00:40:38.560Z,12.60
2023-05-25T00:43:24.012Z,12.57
2023-05-25T00:46:10.460Z,12.56
2023-05-25T00:48:56.249Z,12.55
2023-05-25T00:51:42.228Z,12.47
2023-05-25T00:54:28.002Z,12.46
2023-05-25T00:57:16.691Z,12.41
2023-05-25T01:00:03.247Z,12.39
2023-05-25T01:02:52.583Z,12.36
2023-05-25T01:05:42.698Z,12.35
2023-05-25T01:08:29.866Z,12.34
2023-05-25T01:11:16.765Z,12.35
2023-05-25T01:14:03.388Z,12.33
2023-05-25T01:16:49.769Z,12.33
2023-05-25T01:19:36.296Z,12.32
2023-05-25T01:22:32.493Z,12.29
2023-05-25T01:25:36.805Z,12.21
2023-05-25T01:28:38.672Z,12.20
2023-05-25T01:31:24.764Z,12.18
2023-05-25T01:34:11.111Z,12.16
2023-05-25T01:36:58.512Z,12.17
2023-05-25T01:39:44.103Z,12.15
2023-05-25T01:42:29.316Z,12.14
2023-05-25T01:45:16.699Z,12.15
2023-05-25T01:48:12.954Z,12.13
2023-05-25T01:51:02.518Z,12.12
2023-05-25T01:53:54.110Z,12.12
2023-05-25T01:56:42.659Z,12.10
2023-05-25T01:59:29.505Z,12.10
2023-05-25T02:02:18.280Z,12.07
2023-05-25T02:05:04.796Z,12.06
2023-05-25T02:07:50.349Z,12.07
2023-05-25T02:10:36.133Z,12.06
2023-05-25T02:13:21.577Z,12.04
2023-05-25T02:16:07.957Z,12.03
2023-05-25T02:18:53.326Z,12.01
2023-05-25T02:21:38.696Z,11.98
2023-05-25T02:24:24.892Z,11.96
2023-05-25T02:27:12.776Z,11.95
2023-05-25T02:29:58.531Z,11.91
2023-05-25T02:32:45.411Z,11.89
2023-05-25T02:35:31.066Z,11.85
2023-05-25T02:38:17.361Z,11.82
2023-05-25T02:41:02.772Z,11.78
2023-05-25T02:43:47.968Z,11.75
2023-05-25T02:46:34.132Z,11.69
2023-05-25T02:49:19.622Z,11.65
2023-05-25T02:52:06.101Z,11.61
2023-05-25T02:54:51.498Z,11.56
2023-05-25T02:57:45.832Z,11.54
2023-05-25T03:00:42.752Z,11.52
2023-05-25T03:03:28.568Z,11.52
2023-05-25T03:06:16.030Z,11.50
2023-05-25T03:09:05.101Z,11.47
2023-05-25T03:11:50.927Z,11.46
2023-05-25T03:14:38.942Z,11.42
2023-05-25T03:17:25.359Z,11.38
2023-05-25T03:20:11.743Z,11.36
2023-05-25T03:23:00.961Z,11.30
2023-05-25T03:25:47.145Z,11.28
2023-05-25T03:28:32.865Z,11.27
2023-05-25T03:31:19.022Z,11.30
2023-05-25T03:34:04.742Z,11.35
2023-05-25T03:36:54.345Z,11.40
2023-05-25T03:39:39.894Z,11.41
2023-05-25T03:42:25.506Z,11.41
2023-05-25T03:45:11.452Z,11.43
2023-05-25T03:47:58.351Z,11.43
2023-05-25T03:50:43.929Z,11.47
2023-05-25T03:53:29.635Z,11.46
2023-05-25T03:56:15.597Z,11.50
2023-05-25T03:59:00.949Z,11.52
2023-05-25T04:01:46.449Z,11.57
2023-05-25T04:04:31.594Z,11.63
2023-05-25T04:07:18.858Z,11.71
2023-05-25T04:10:05.001Z,11.78
2023-05-25T04:12:51.926Z,11.86
2023-05-25T04:15:38.250Z,11.89
2023-05-25T04:18:30.920Z,12.00
2023-05-25T04:21:17.876Z,12.03
2023-05-25T04:24:03.514Z,12.01
2023-05-25T04:26:49.751Z,11.97
2023-05-25T04:29:34.957Z,11.97
2023-05-25T04:32:45.797Z,11.99
2023-05-25T04:35:50.640Z,12.01
2023-05-25T04:38:37.381Z,12.01
2023-05-25T04:41:25.759Z,12.08
2023-05-25T04:44:13.850Z,12.13
2023-05-25T04:47:07.290Z,12.20
2023-05-25T04:49:53.227Z,12.24
2023-05-25T04:52:38.543Z,12.27
2023-05-25T04:55:24.175Z,12.30
2023-05-25T04:58:09.494Z,12.41
2023-05-25T05:00:56.428Z,12.49
2023-05-25T05:03:42.030Z,12.63
2023-05-25T05:06:27.476Z,12.75
2023-05-25T05:09:14.166Z,12.88
2023-05-25T05:11:59.733Z,13.00
2023-05-25T05:14:46.297Z,13.10
2023-05-25T05:17:31.644Z,13.13
2023-05-25T05:20:17.343Z,13.18
2023-05-25T05:23:02.910Z,13.27
2023-05-25T05:25:48.262Z,13.31
2023-05-25T05:28:34.071Z,13.27
2023-05-25T05:31:19.760Z,13.32
2023-05-25T05:34:05.876Z,13.44
2023-05-25T05:36:57.838Z,13.40
2023-05-25T05:39:43.474Z,13.41
2023-05-25T05:42:29.014Z,13.50
2023-05-25T05:45:14.892Z,13.64
2023-05-25T05:48:01.257Z,13.76
2023-05-25T05:50:48.446Z,13.90
2023-05-25T05:53:35.364Z,13.94
2023-05-25T05:56:22.069Z,14.05
2023-05-25T05:59:07.225Z,14.08
2023-05-25T06:01:52.774Z,14.18
2023-05-25T06:04:38.938Z,14.53
2023-05-25T06:07:24.281Z,14.97
2023-05-25T06:10:10.151Z,15.10
2023-05-25T06:12:55.496Z,15.10
2023-05-25T06:15:41.065Z,15.21
2023-05-25T06:18:30.634Z,15.02
2023-05-25T06:21:16.390Z,15.08
2023-05-25T06:24:01.739Z,15.04
2023-05-25T06:26:47.259Z,15.08
2023-05-25T06:29:33.137Z,15.18
2023-05-25T06:32:18.436Z,15.20
2023-05-25T06:35:04.782Z,15.38
2023-05-25T06:37:50.349Z,15.55
2023-05-25T06:40:38.083Z,15.38
2023-05-25T06:43:23.557Z,15.42
2023-05-25T06:46:21.541Z,15.60
2023-05-25T06:49:07.008Z,15.61
2023-05-25T06:51:52.481Z,15.74
2023-05-25T06:54:38.214Z,15.97
2023-05-25T06:57:23.777Z,16.18
2023-05-25T07:00:12.082Z,16.38
2023-05-25T07:02:57.677Z,16.37
2023-05-25T07:05:43.292Z,16.17
2023-05-25T07:08:28.847Z,16.15
2023-05-25T07:11:14.293Z,16.26
2023-05-25T07:13:59.357Z,16.48
2023-05-25T07:16:48.211Z,16.68
2023-05-25T07:19:33.790Z,16.79
2023-05-25T07:22:19.527Z,16.61
2023-05-25T07:25:05.182Z,16.68
2023-05-25T07:27:54.976Z,16.70
2023-05-25T07:30:40.889Z,16.75
2023-05-25T07:33:26.511Z,16.68
2023-05-25T07:36:12.459Z,16.71
2023-05-25T07:38:58.274Z,16.78
2023-05-25T07:41:43.467Z,16.96
2023-05-25T07:44:30.005Z,17.10
2023-05-25T07:47:15.186Z,17.12
2023-05-25T07:50:00.217Z,17.21
2023-05-25T07:52:46.359Z,17.22
2023-05-25T07:55:31.588Z,17.46
2023-05-25T07:58:16.872Z,17.55
2023-05-25T08:01:02.377Z,17.72
2023-05-25T08:03:50.050Z,17.67
2023-05-25T08:06:35.867Z,17.79
2023-05-25T08:09:21.450Z,17.93
2023-05-25T08:12:27.341Z,18.01
2023-05-25T08:15:13.394Z,17.96
2023-05-25T08:17:58.940Z,17.67
2023-05-25T08:20:43.989Z,17.42
2023-05-25T08:23:29.410Z,17.64
2023-05-25T08:26:34.114Z,17.75
2023-05-25T08:29:20.170Z,18.00
2023-05-25T08:32:05.465Z,18.36
2023-05-25T08:34:50.944Z,18.60
2023-05-25T08:37:36.559Z,18.35
2023-05-25T08:40:26.749Z,18.26
2023-05-25T08:43:12.417Z,18.63
2023-05-25T08:46:03.861Z,19.03
2023-05-25T08:48:52.024Z,19.31
2023-05-25T08:51:41.847Z,18.97
2023-05-25T08:54:34.109Z,18.62
2023-05-25T08:57:34.595Z,18.53
2023-05-25T09:00:25.494Z,18.11
2023-05-25T09:03:20.112Z,18.18
2023-05-25T09:06:05.850Z,18.62
2023-05-25T09:08:51.078Z,18.38
2023-05-25T09:11:40.408Z,18.63
2023-05-25T09:14:27.608Z,19.21
2023-05-25T09:17:14.673Z,19.16
2023-05-25T09:20:00.374Z,19.14
2023-05-25T09:22:47.375Z,19.14
2023-05-25T09:25:33.729Z,19.09
2023-05-25T09:28:26.894Z,18.93
2023-05-25T09:31:13.232Z,18.82
2023-05-25T09:33:59.903Z,18.41
2023-05-25T09:36:45.143Z,18.40
2023-05-25T09:39:30.879Z,18.42
2023-05-25T09:42:17.210Z,18.61
2023-05-25T09:45:03.580Z,18.89
2023-05-25T09:47:54.054Z,19.02
2023-05-25T09:50:39.569Z,18.86
2023-05-25T09:53:25.008Z,18.60
2023-05-25T09:56:12.440Z,18.58
2023-05-25T09:58:58.335Z,18.54
2023-05-25T10:01:47.357Z,18.30
2023-05-25T10:04:32.811Z,18.32
2023-05-25T10:07:19.760Z,18.63
2023-05-25T10:10:09.943Z,18.90
2023-05-25T10:12:55.984Z,19.29
2023-05-25T10:15:44.759Z,19.31
2023-05-25T10:18:35.985Z,19.32
2023-05-25T10:21:22.705Z,19.56
2023-05-25T10:24:21.222Z,19.73
2023-05-25T10:27:25.691Z,19.73
2023-05-25T10:30:14.661Z,19.77
2023-05-25T10:33:02.306Z,19.85
2023-05-25T10:36:02.405Z,19.92
2023-05-25T10:38:55.635Z,20.07
2023-05-25T10:41:42.034Z,19.63
2023-05-25T10:44:28.284Z,19.63
2023-05-25T10:47:16.121Z,19.25
2023-05-25T10:50:03.046Z,19.57
2023-05-25T10:53:06.246Z,19.90
2023-05-25T10:55:51.854Z,20.01
2023-05-25T10:58:42.690Z,20.05
2023-05-25T11:01:33.515Z,20.05
2023-05-25T11:04:19.102Z,19.66
2023-05-25T11:07:08.383Z,19.52
2023-05-25T11:09:58.655Z,19.54
2023-05-25T11:12:46.469Z,19.76
2023-05-25T11:15:31.773Z,19.65
2023-05-25T11:18:17.171Z,19.34
2023-05-25T11:21:34.726Z,19.20
2023-05-25T11:24:20.605Z,19.17
2023-05-25T11:27:06.346Z,18.86
2023-05-25T11:29:52.800Z,19.26
2023-05-25T11:32:50.596Z,19.46
2023-05-25T11:35:37.240Z,19.80
2023-05-25T11:38:24.835Z,20.07
2023-05-25T11:41:23.662Z,20.24
2023-05-25T11:44:09.068Z,20.27
2023-05-25T11:46:57.600Z,20.44
2023-05-25T11:49:49.811Z,20.74
2023-05-25T11:52:35.044Z,20.34
2023-05-25T11:55:21.387Z,20.01
2023-05-25T11:58:06.634Z,20.57
2023-05-25T12:00:52.736Z,20.80
2023-05-25T12:03:38.152Z,20.46
2023-05-25T12:06:33.761Z,20.01
2023-05-25T12:09:22.373Z,20.13
2023-05-25T12:12:08.308Z,20.27
2023-05-25T12:14:53.817Z,20.21
2023-05-25T12:17:44.541Z,19.84
2023-05-25T12:20:30.578Z,19.40
2023-05-25T12:23:16.798Z,19.42
2023-05-25T12:26:16.212Z,19.32
2023-05-25T12:29:02.816Z,19.19
2023-05-25T12:31:48.093Z,19.10
2023-05-25T12:34:33.758Z,18.77
2023-05-25T12:37:21.144Z,18.94
2023-05-25T12:40:20.727Z,19.10
2023-05-25T12:43:06.231Z,19.25
2023-05-25T12:45:51.842Z,19.70
2023-05-25T12:48:37.062Z,20.15
2023-05-25T12:51:22.248Z,20.17
2023-05-25T12:54:07.337Z,19.80
2023-05-25T12:56:57.160Z,19.40
2023-05-25T12:59:44.352Z,19.34
2023-05-25T13:02:29.742Z,19.55
2023-05-25T13:05:26.384Z,20.02
2023-05-25T13:08:12.134Z,20.22
2023-05-25T13:10:57.331Z,20.16
2023-05-25T13:13:42.688Z,20.06
2023-05-25T13:16:29.447Z,19.87
2023-05-25T13:19:14.657Z,19.43
2023-05-25T13:22:00.016Z,19.57
2023-05-25T13:24:45.754Z,19.66
2023-05-25T13:27:31.435Z,19.91
2023-05-25T13:30:17.843Z,19.90
2023-05-25T13:33:03.477Z,19.85
2023-05-25T13:35:58.846Z,19.65
2023-05-25T13:38:45.121Z,19.31
2023-05-25T13:41:31.604Z,18.95
2023-05-25T13:44:17.748Z,19.15
2023-05-25T13:47:03.777Z,19.33
2023-05-25T13:49:49.402Z,19.22
2023-05-25T13:52:34.668Z,19.19
2023-05-25T13:55:19.788Z,19.22
2023-05-25T13:58:05.412Z,19.28
2023-05-25T14:00:51.585Z,19.40
2023-05-25T14:03:38.984Z,19.51
2023-05-25T14:06:25.077Z,19.79
2023-05-25T14:09:11.058Z,19.93
2023-05-25T14:11:57.187Z,19.86
2023-05-25T14:14:42.385Z,19.98
2023-05-25T14:17:27.856Z,20.24
2023-05-25T14:20:20.621Z,20.30
2023-05-25T14:23:06.219Z,20.28
2023-05-25T14:25:51.565Z,20.37
2023-05-25T14:28:36.745Z,20.46
2023-05-25T14:31:22.205Z,20.14
2023-05-25T14:34:07.408Z,19.81
2023-05-25T14:36:52.849Z,19.76
2023-05-25T14:39:38.424Z,19.87
2023-05-25T14:42:23.958Z,20.09
2023-05-25T14:45:11.647Z,19.89
2023-05-25T14:48:11.753Z,19.89
2023-05-25T14:51:02.730Z,20.07
2023-05-25T14:53:48.187Z,20.17
2023-05-25T14:56:34.091Z,19.89
2023-05-25T14:59:19.448Z,19.81
2023-05-25T15:02:05.718Z,19.66
2023-05-25T15:04:51.143Z,19.76
2023-05-25T15:07:36.245Z,19.76
2023-05-25T15:10:21.770Z,19.90
2023-05-25T15:13:06.844Z,19.83
2023-05-25T15:15:55.997Z,19.85
2023-05-25T15:18:41.103Z,19.92
2023-05-25T15:21:26.632Z,20.06
2023-05-25T15:24:16.544Z,20.20
2023-05-25T15:27:02.806Z,20.06
2023-05-25T15:29:48.220Z,19.87
2023-05-25T15:32:34.270Z,19.64
2023-05-25T15:35:19.555Z,19.77
2023-05-25T15:38:05.111Z,19.84
2023-05-25T15:40:50.329Z,19.80
2023-05-25T15:43:35.939Z,19.72
2023-05-25T15:46:21.967Z,19.81
2023-05-25T15:49:11.365Z,19.87
2023-05-25T15:51:56.917Z,19.68
2023-05-25T15:54:42.445Z,19.69
2023-05-25T15:57:27.890Z,19.70
2023-05-25T16:00:14.167Z,19.74
2023-05-25T16:02:59.521Z,19.41
2023-05-25T16:05:45.696Z,19.50
2023-05-25T16:08:30.958Z,19.61
2023-05-25T16:11:16.486Z,19.50
2023-05-25T16:14:01.822Z,19.47
2023-05-25T16:16:47.058Z,19.53
2023-05-25T16:19:32.959Z,19.54
2023-05-25T16:22:18.530Z,19.59
2023-05-25T16:25:03.716Z,19.64
2023-05-25T16:27:49.064Z,19.63
2023-05-25T16:30:34.520Z,19.42
2023-05-25T16:33:20.074Z,19.37
2023-05-25T16:36:05.704Z,19.36
2023-05-25T16:38:51.299Z,19.30
2023-05-25T16:41:36.372Z,19.30
2023-05-25T16:44:21.720Z,19.37
2023-05-25T16:47:07.077Z,19.39
2023-05-25T16:49:52.393Z,19.40
2023-05-25T16:52:37.595Z,19.34
2023-05-25T16:55:23.315Z,19.13
2023-05-25T16:58:08.624Z,19.11
2023-05-25T17:00:53.835Z,19.15
2023-05-25T17:03:40.651Z,19.13
2023-05-25T17:06:26.297Z,18.99
2023-05-25T17:09:11.969Z,18.96
2023-05-25T17:11:59.581Z,18.89
2023-05-25T17:14:44.892Z,18.93
2023-05-25T17:17:30.392Z,18.89
2023-05-25T17:20:17.092Z,18.83
2023-05-25T17:23:02.296Z,18.63
2023-05-25T17:25:47.694Z,18.57
2023-05-25T17:28:33.322Z,18.53
2023-05-25T17:31:18.537Z,18.40
2023-05-25T17:34:03.751Z,18.41
2023-05-25T17:36:49.027Z,18.36
2023-05-25T17:39:34.410Z,18.40
2023-05-25T17:42:19.774Z,18.41
2023-05-25T17:45:10.525Z,18.35
2023-05-25T17:47:56.351Z,18.34
2023-05-25T17:50:41.553Z,18.28
2023-05-25T17:53:27.143Z,18.26
2023-05-25T17:56:12.707Z,18.24
2023-05-25T17:58:58.275Z,18.16
2023-05-25T18:01:43.598Z,18.10
2023-05-25T18:04:29.253Z,18.08
2023-05-25T18:07:14.931Z,18.09
2023-05-25T18:10:00.774Z,18.05
2023-05-25T18:12:49.168Z,18.02
2023-05-25T18:15:34.840Z,17.94
2023-05-25T18:18:24.691Z,17.90
2023-05-25T18:21:10.442Z,17.85
2023-05-25T18:23:55.763Z,17.74
2023-05-25T18:26:42.312Z,17.73
2023-05-25T18:29:27.795Z,17.72
2023-05-25T18:32:12.997Z,17.68
2023-05-25T18:34:58.178Z,17.61
2023-05-25T18:37:43.371Z,17.51
2023-05-25T18:40:28.413Z,17.48
2023-05-25T18:43:13.867Z,17.46
2023-05-25T18:45:59.437Z,17.42
2023-05-25T18:48:44.575Z,17.38
2023-05-25T18:51:29.701Z,17.36
2023-05-25T18:54:15.294Z,17.34
2023-05-25T18:57:01.554Z,17.31
2023-05-25T18:59:46.957Z,17.27
2023-05-25T19:02:32.733Z,17.23
2023-05-25T19:05:19.863Z,17.21
2023-05-25T19:08:05.184Z,17.17
2023-05-25T19:10:50.836Z,17.10
2023-05-25T19:13:36.126Z,17.06
2023-05-25T19:16:21.310Z,16.98
2023-05-25T19:19:06.747Z,16.96
2023-05-25T19:21:53.161Z,16.95
2023-05-25T19:24:41.340Z,16.94
2023-05-25T19:27:28.400Z,16.90
2023-05-25T19:30:13.986Z,16.85
2023-05-25T19:32:59.335Z,16.85
2023-05-25T19:35:45.347Z,16.81
2023-05-25T19:38:37.701Z,16.77
2023-05-25T19:41:26.628Z,16.74
2023-05-25T19:44:11.909Z,16.72
2023-05-25T19:46:57.211Z,16.68
2023-05-25T19:49:42.762Z,16.65
2023-05-25T19:52:28.511Z,16.62
2023-05-25T19:55:14.076Z,16.62
2023-05-25T19:57:59.507Z,16.61
2023-05-25T20:00:44.924Z,16.58
2023-05-25T20:03:30.335Z,16.54
2023-05-25T20:06:15.980Z,16.47
2023-05-25T20:09:01.357Z,16.41
2023-05-25T20:11:46.977Z,16.37
2023-05-25T20:14:33.735Z,16.33
2023-05-25T20:17:19.543Z,16.26
2023-05-25T20:20:05.861Z,16.21
2023-05-25T20:22:51.109Z,16.14
2023-05-25T20:25:36.341Z,16.09
2023-05-25T20:28:22.096Z,16.03
2023-05-25T20:31:09.114Z,15.98
2023-05-25T20:33:54.950Z,15.93
2023-05-25T20:36:40.443Z,15.86
2023-05-25T20:39:26.071Z,15.83
2023-05-25T20:42:11.796Z,15.78
2023-05-25T20:44:57.200Z,15.75
2023-05-25T20:47:42.542Z,15.70
2023-05-25T20:50:31.475Z,15.69
2023-05-25T20:53:19.278Z,15.66
2023-05-25T20:56:05.038Z,15.61
2023-05-25T20:58:51.179Z,15.57
2023-05-25T21:01:36.667Z,15.55
2023-05-25T21:04:22.884Z,15.52
2023-05-25T21:07:08.502Z,15.50
2023-05-25T21:09:56.440Z,15.49
2023-05-25T21:12:44.898Z,15.45
2023-05-25T21:15:30.458Z,15.41
2023-05-25T21:18:16.468Z,15.39
2023-05-25T21:21:02.276Z,15.34
2023-05-25T21:23:47.557Z,15.31
2023-05-25T21:26:32.814Z,15.28
2023-05-25T21:29:17.930Z,15.27
2023-05-25T21:32:03.386Z,15.23
2023-05-25T21:34:48.690Z,15.22
2023-05-25T21:37:34.737Z,15.19
2023-05-25T21:40:19.828Z,15.17
2023-05-25T21:43:05.301Z,15.16
2023-05-25T21:45:51.172Z,15.16
2023-05-25T21:48:36.794Z,15.11
2023-05-25T21:51:21.827Z,15.08
2023-05-25T21:54:07.235Z,15.03
2023-05-25T21:56:52.442Z,14.98
2023-05-25T21:59:37.770Z,14.94
